createdAt,value
2022-12-12T00:03:08.223Z,20.60
2022-12-12T00:08:02.025Z,18.65
2022-12-12T00:12:55.845Z,19.27
2022-12-12T00:17:50.034Z,21.92
2022-12-12T00:22:42.800Z,21.15
2022-12-12T00:27:36.408Z,24.37
2022-12-12T00:32:30.398Z,21.23
2022-12-12T00:37:24.018Z,24.35
2022-12-12T00:42:18.162Z,23.65
2022-12-12T00:47:12.741Z,23.60
2022-12-12T00:52:06.559Z,22.20
2022-12-12T00:57:00.958Z,22.77
2022-12-12T01:01:54.450Z,22.60
2022-12-12T01:11:42.440Z,34.17
2022-12-12T01:16:38.067Z,26.25
2022-12-12T01:21:32.162Z,27.10
2022-12-12T01:26:27.158Z,26.00
2022-12-12T01:31:21.175Z,23.80
2022-12-12T01:36:24.858Z,22.50
2022-12-12T01:46:19.719Z,19.80
2022-12-12T01:51:16.548Z,18.25
2022-12-12T01:56:13.076Z,18.10
2022-12-12T02:01:07.087Z,18.95
2022-12-12T02:06:04.687Z,19.63
2022-12-12T02:10:58.702Z,15.38
2022-12-12T02:16:11.544Z,14.70
2022-12-12T02:21:04.764Z,14.85
2022-12-12T02:26:15.904Z,17.90
2022-12-12T02:31:46.323Z,22.58
2022-12-12T02:36:39.574Z,18.30
2022-12-12T02:41:42.010Z,19.33
2022-12-12T02:46:44.747Z,14.35
2022-12-12T02:51:39.442Z,14.20
2022-12-12T02:56:52.760Z,15.50
2022-12-12T03:02:17.414Z,15.48
2022-12-12T03:07:45.905Z,18.98
2022-12-12T03:12:59.344Z,16.95
2022-12-12T03:18:01.817Z,18.35
2022-12-12T03:23:00.870Z,18.98
2022-12-12T03:28:09.863Z,17.48
2022-12-12T03:33:42.608Z,13.73
2022-12-12T03:38:47.318Z,13.33
2022-12-12T03:44:20.819Z,11.27
2022-12-12T03:49:16.919Z,11.93
2022-12-12T03:54:31.423Z,11.57
2022-12-12T03:59:29.985Z,12.73
2022-12-12T04:04:30.927Z,13.65
2022-12-12T04:09:46.193Z,13.32
2022-12-12T04:15:20.762Z,14.20
2022-12-12T04:20:46.527Z,15.75
2022-12-12T04:26:07.655Z,14.95
2022-12-12T04:31:05.600Z,15.23
2022-12-12T04:36:02.372Z,13.98
2022-12-12T04:40:58.660Z,12.98
2022-12-12T04:45:57.753Z,13.43
2022-12-12T04:50:53.618Z,12.23
2022-12-12T04:55:52.914Z,11.98
2022-12-12T05:01:30.926Z,12.32
2022-12-12T05:06:39.225Z,12.93
2022-12-12T05:11:32.506Z,14.80
2022-12-12T05:16:30.352Z,12.45
2022-12-12T05:21:24.806Z,12.38
2022-12-12T05:26:25.918Z,13.05
2022-12-12T05:31:19.722Z,14.25
2022-12-12T05:36:13.123Z,13.43
2022-12-12T05:41:07.353Z,10.97
2022-12-12T05:46:01.795Z,14.20
2022-12-12T05:50:55.168Z,14.82
2022-12-12T05:55:51.330Z,14.80
2022-12-12T06:00:45.750Z,13.35
2022-12-12T06:05:39.207Z,14.45
2022-12-12T06:10:33.458Z,16.17
2022-12-12T06:20:20.865Z,17.83
2022-12-12T06:25:15.465Z,19.60
2022-12-12T06:30:11.359Z,17.65
2022-12-12T06:35:05.945Z,18.95
2022-12-12T06:40:00.117Z,24.00
2022-12-12T06:44:53.192Z,16.45
2022-12-12T06:54:44.900Z,19.17
2022-12-12T06:59:40.965Z,17.65
2022-12-12T07:04:35.361Z,19.15
2022-12-12T07:09:29.411Z,17.20
2022-12-12T07:14:23.434Z,16.05
2022-12-12T07:19:17.896Z,13.15
2022-12-12T07:24:12.598Z,15.50
2022-12-12T07:29:06.821Z,12.70
2022-12-12T07:34:01.540Z,16.95
2022-12-12T07:38:55.698Z,18.20
2022-12-12T07:43:50.372Z,12.57
2022-12-12T07:48:44.039Z,13.15
2022-12-12T07:53:38.155Z,15.65
2022-12-12T07:58:32.179Z,14.27
2022-12-12T08:08:19.357Z,13.63
2022-12-12T08:13:13.237Z,16.48
2022-12-12T08:18:07.738Z,16.70
2022-12-12T08:23:02.258Z,20.88
2022-12-12T08:27:55.396Z,18.65
2022-12-12T08:32:49.562Z,22.45
2022-12-12T08:37:43.506Z,14.07
2022-12-12T08:42:37.291Z,12.80
2022-12-12T08:47:31.017Z,15.45
2022-12-12T08:57:22.753Z,13.15
2022-12-12T09:02:19.929Z,13.30
2022-12-12T09:07:14.128Z,12.05
2022-12-12T09:12:09.731Z,13.52
2022-12-12T09:17:03.739Z,14.73
2022-12-12T09:22:01.000Z,14.55
2022-12-12T09:26:54.804Z,14.05
2022-12-12T09:31:48.089Z,13.93
2022-12-12T09:36:42.056Z,13.27
2022-12-12T09:41:35.945Z,14.73
2022-12-12T09:46:36.234Z,15.55
2022-12-12T09:51:28.840Z,14.82
2022-12-12T09:56:33.778Z,14.43
2022-12-12T10:01:42.785Z,13.45
2022-12-12T10:06:58.115Z,12.73
2022-12-12T10:11:51.493Z,11.70
2022-12-12T10:16:44.740Z,12.88
2022-12-12T10:21:41.357Z,12.67
2022-12-12T10:26:35.001Z,13.73
2022-12-12T10:31:48.016Z,13.05
2022-12-12T10:36:53.196Z,12.57
2022-12-12T10:42:13.659Z,12.57
2022-12-12T10:47:09.153Z,13.32
2022-12-12T10:52:06.373Z,14.07
2022-12-12T10:57:22.636Z,15.27
2022-12-12T11:02:40.166Z,17.95
2022-12-12T11:07:44.699Z,17.10
2022-12-12T11:12:38.536Z,18.13
2022-12-12T11:17:32.709Z,18.92
2022-12-12T11:22:27.548Z,26.60
2022-12-12T11:27:30.126Z,23.85
2022-12-12T11:32:41.156Z,24.58
2022-12-12T11:37:47.276Z,24.02
2022-12-12T11:42:40.987Z,20.83
2022-12-12T11:47:48.438Z,21.67
2022-12-12T11:52:43.658Z,18.98
2022-12-12T12:02:57.456Z,17.02
2022-12-12T12:08:23.398Z,15.98
2022-12-12T12:13:45.914Z,15.30
2022-12-12T12:19:00.189Z,13.90
2022-12-12T12:24:11.052Z,14.55
2022-12-12T12:29:22.685Z,14.95
2022-12-12T12:34:25.402Z,15.55
2022-12-12T12:39:40.294Z,15.73
2022-12-12T12:44:56.950Z,16.15
2022-12-12T12:50:15.773Z,16.63
2022-12-12T12:55:33.896Z,15.35
2022-12-12T13:00:29.583Z,15.18
2022-12-12T13:05:28.973Z,15.20
2022-12-12T13:10:23.710Z,15.32
2022-12-12T13:15:22.877Z,14.90
2022-12-12T13:20:19.937Z,14.57
2022-12-12T13:25:20.238Z,15.13
2022-12-12T13:30:22.168Z,14.55
2022-12-12T13:35:19.590Z,15.75
2022-12-12T13:40:42.979Z,16.25
2022-12-12T13:45:39.866Z,15.65
2022-12-12T13:50:34.880Z,15.85
2022-12-12T13:55:28.879Z,16.33
2022-12-12T14:00:23.367Z,19.52
2022-12-12T14:05:24.652Z,18.88
2022-12-12T14:10:24.142Z,27.73
2022-12-12T14:15:41.342Z,27.20
2022-12-12T14:20:36.808Z,30.13
2022-12-12T14:25:34.862Z,45.40
2022-12-12T14:31:15.150Z,36.13
2022-12-12T14:36:33.118Z,39.85
2022-12-12T14:41:33.965Z,38.40
2022-12-12T14:46:30.335Z,37.38
2022-12-12T14:51:47.037Z,33.50
2022-12-12T14:56:52.259Z,59.45
2022-12-12T15:02:11.861Z,31.98
2022-12-12T15:07:07.300Z,33.90
2022-12-12T15:12:12.000Z,39.20
2022-12-12T15:17:09.114Z,41.40
2022-12-12T15:22:03.446Z,42.00
2022-12-12T15:26:58.266Z,42.90
2022-12-12T15:32:02.882Z,48.17
2022-12-12T15:36:57.455Z,49.47
2022-12-12T15:41:51.247Z,45.40
2022-12-12T15:46:44.503Z,48.60
2022-12-12T15:51:39.173Z,46.10
2022-12-12T15:56:33.223Z,44.05
2022-12-12T16:01:30.305Z,48.38
2022-12-12T16:06:27.306Z,45.83
2022-12-12T16:11:46.024Z,47.13
2022-12-12T16:16:40.980Z,46.72
2022-12-12T16:21:37.425Z,49.78
2022-12-12T16:26:31.359Z,49.60
2022-12-12T16:36:18.898Z,46.05
2022-12-12T16:41:15.547Z,46.00
2022-12-12T16:46:24.247Z,51.45
2022-12-12T16:51:21.346Z,44.60
2022-12-12T16:56:14.830Z,48.67
2022-12-12T17:01:08.753Z,47.42
2022-12-12T17:11:10.617Z,47.55
2022-12-12T17:16:05.304Z,71.00
2022-12-12T17:20:59.453Z,82.05
2022-12-12T17:25:57.227Z,67.85
2022-12-12T17:30:54.725Z,46.35
2022-12-12T17:35:58.707Z,45.78
2022-12-12T17:40:54.432Z,39.95
2022-12-12T17:45:56.742Z,38.55
2022-12-12T17:50:57.129Z,43.45
2022-12-12T17:56:01.086Z,46.20
2022-12-12T18:01:00.304Z,45.63
2022-12-12T18:05:55.642Z,40.22
2022-12-12T18:10:49.172Z,42.40
2022-12-12T18:15:44.549Z,37.30
2022-12-12T18:20:40.649Z,39.20
2022-12-12T18:25:36.138Z,36.80
2022-12-12T18:30:29.706Z,39.85
2022-12-12T18:40:19.417Z,27.83
2022-12-12T18:45:13.180Z,28.65
2022-12-12T18:50:08.660Z,31.38
2022-12-12T18:55:02.714Z,32.97
2022-12-12T18:59:57.125Z,32.95
2022-12-12T19:04:52.078Z,33.95
2022-12-12T19:09:48.754Z,33.10
2022-12-12T19:15:08.329Z,33.42
2022-12-12T19:19:55.208Z,33.13
2022-12-12T19:24:48.866Z,33.67
2022-12-12T19:29:42.998Z,30.58
2022-12-12T19:34:36.780Z,32.72
2022-12-12T19:39:30.425Z,29.80
2022-12-12T19:44:24.326Z,28.48
2022-12-12T19:54:14.942Z,29.25
2022-12-12T19:59:09.237Z,29.45
2022-12-12T20:04:08.928Z,31.00
2022-12-12T20:09:02.589Z,27.58
2022-12-12T20:13:57.439Z,27.48
2022-12-12T20:18:56.244Z,27.55
2022-12-12T20:23:53.158Z,29.67
2022-12-12T20:28:47.552Z,26.02
2022-12-12T20:33:40.589Z,25.70
2022-12-12T20:38:35.826Z,27.70
2022-12-12T20:43:30.794Z,28.08
2022-12-12T20:48:24.478Z,27.70
2022-12-12T20:53:18.985Z,28.23
2022-12-12T20:58:13.269Z,27.48
2022-12-12T21:03:07.349Z,26.63
2022-12-12T21:08:02.552Z,28.25
2022-12-12T21:12:55.963Z,27.63
2022-12-12T21:22:44.662Z,29.45
2022-12-12T21:27:38.340Z,24.17
2022-12-12T21:32:31.734Z,23.98
2022-12-12T21:37:24.918Z,22.70
2022-12-12T21:47:11.996Z,22.10
2022-12-12T21:52:10.662Z,23.27
2022-12-12T21:57:03.897Z,21.92
2022-12-12T22:01:59.312Z,23.33
2022-12-12T22:06:53.807Z,23.90
2022-12-12T22:11:50.574Z,22.45
2022-12-12T22:16:44.761Z,24.75
2022-12-12T22:21:38.089Z,24.40
2022-12-12T22:26:54.998Z,25.45
2022-12-12T22:31:50.554Z,25.15
2022-12-12T22:36:45.465Z,26.52
2022-12-12T22:41:39.913Z,26.50
2022-12-12T22:46:33.359Z,26.98
2022-12-12T22:56:21.048Z,24.05
2022-12-12T23:11:15.668Z,21.67
2022-12-12T23:16:12.058Z,23.58
2022-12-12T23:21:09.949Z,25.90
2022-12-12T23:26:16.488Z,24.88
2022-12-12T23:31:15.156Z,26.07
2022-12-12T23:36:13.996Z,25.80
2022-12-12T23:41:09.737Z,27.08
2022-12-12T23:46:28.824Z,26.92
